Time;durP1;ratioP1;P1;durP2;ratioP2;P2;SDS_P1;SDS_P2;PMS_P1;PMS_P2;Temp;Humidity;BMP_temperature;BMP_pressure;BME280_temperature;BME280_humidity;BME280_pressure;Samples;Min_cycle;Max_cycle;Signal;HPM_P1;HPM_P2
2022/05/20 00:01:51;;;;;;;14.13;2.92;;;14.70;93.30;;;;;;5023242;28;20313;-66
2022/05/20 00:04:17;;;;;;;8.35;2.30;;;14.70;93.20;;;;;;5021722;28;20057;-66
2022/05/20 00:06:43;;;;;;;10.70;2.30;;;14.70;93.00;;;;;;5041889;28;20056;-66
2022/05/20 00:09:09;;;;;;;8.95;2.65;;;14.60;93.00;;;;;;5043098;28;20025;-66
2022/05/20 00:11:35;;;;;;;9.98;2.88;;;14.60;93.10;;;;;;5025714;28;20028;-66
2022/05/20 00:14:01;;;;;;;6.57;2.47;;;14.60;93.30;;;;;;5025158;28;20353;-66
2022/05/20 00:16:29;;;;;;;11.75;2.53;;;14.60;93.10;;;;;;5025483;28;20060;-66
2022/05/20 00:18:55;;;;;;;9.00;2.10;;;14.70;92.90;;;;;;5008153;28;20025;-66
2022/05/20 00:21:20;;;;;;;10.68;2.20;;;14.70;93.00;;;;;;5008951;28;20097;-67
2022/05/20 00:23:46;;;;;;;8.77;1.80;;;14.70;92.80;;;;;;5042763;28;20216;-66
2022/05/20 00:26:12;;;;;;;8.25;1.45;;;14.60;92.80;;;;;;5042017;28;20025;-67
2022/05/20 00:28:38;;;;;;;7.97;1.73;;;14.60;92.80;;;;;;5043167;28;20084;-66
2022/05/20 00:31:09;;;;;;;7.88;1.55;;;14.50;92.80;;;;;;5041586;28;20243;-67
2022/05/20 00:33:37;;;;;;;13.07;2.33;;;14.50;92.90;;;;;;5025124;28;20025;-66
2022/05/20 00:36:04;;;;;;;8.43;1.75;;;14.50;92.90;;;;;;5025111;28;20025;-67
2022/05/20 00:38:30;;;;;;;6.60;1.60;;;14.50;92.70;;;;;;5042803;28;20021;-66
2022/05/20 00:40:58;;;;;;;13.35;1.60;;;14.40;92.80;;;;;;5034360;28;20057;-66
2022/05/20 00:43:45;;;;;;;11.20;1.75;;;14.40;93.00;;;;;;5021962;28;20038;-66
2022/05/20 00:46:18;;;;;;;13.90;1.83;;;14.40;93.10;;;;;;5008212;28;20026;-67
2022/05/20 00:48:45;;;;;;;7.88;1.98;;;14.40;93.10;;;;;;5005382;28;20026;-67
2022/05/20 00:51:26;;;;;;;8.93;1.58;;;14.40;93.20;;;;;;5026187;28;20093;-66
2022/05/20 00:54:00;;;;;;;9.27;1.47;;;14.40;93.00;;;;;;5025641;28;20022;-66
2022/05/20 00:56:36;;;;;;;5.35;1.60;;;14.50;92.80;;;;;;5026489;28;20034;-67
2022/05/20 00:59:05;;;;;;;7.38;1.48;;;14.60;92.60;;;;;;5025303;28;20272;-66
2022/05/20 01:01:32;;;;;;;7.03;1.45;;;14.60;92.40;;;;;;5025301;28;20025;-66
2022/05/20 01:03:58;;;;;;;9.30;1.90;;;14.60;92.30;;;;;;5025961;28;20029;-66
2022/05/20 01:06:24;;;;;;;5.25;1.30;;;14.50;92.40;;;;;;5042612;28;20021;-66
2022/05/20 01:08:49;;;;;;;10.10;1.73;;;14.60;92.50;;;;;;5046152;28;20029;-66
2022/05/20 01:11:15;;;;;;;12.45;1.40;;;14.60;92.50;;;;;;5028446;28;20028;-66
2022/05/20 01:13:41;;;;;;;5.03;1.30;;;14.60;92.60;;;;;;5027617;28;20021;-66
2022/05/20 01:16:11;;;;;;;6.43;1.20;;;14.50;92.60;;;;;;5044774;28;20027;-66
2022/05/20 01:18:39;;;;;;;4.50;1.40;;;14.40;92.50;;;;;;5043656;28;20300;-66
2022/05/20 01:21:06;;;;;;;8.02;1.63;;;14.20;92.70;;;;;;5044634;28;20162;-67
2022/05/20 01:23:34;;;;;;;7.38;1.15;;;14.30;93.00;;;;;;5027676;28;20037;-67
2022/05/20 01:26:00;;;;;;;6.95;1.20;;;14.40;93.00;;;;;;5045841;28;20031;-66
2022/05/20 01:28:29;;;;;;;6.00;1.42;;;14.40;92.60;;;;;;5028242;28;20053;-66
2022/05/20 01:31:00;;;;;;;6.82;1.75;;;14.40;92.40;;;;;;5028414;28;20078;-66
2022/05/20 01:33:31;;;;;;;9.07;1.50;;;14.40;92.70;;;;;;5045342;28;20055;-66
2022/05/20 01:35:58;;;;;;;9.73;1.58;;;14.30;92.90;;;;;;5043955;28;20040;-66
2022/05/20 01:38:24;;;;;;;7.85;1.70;;;14.30;93.00;;;;;;5028011;28;20059;-67
2022/05/20 01:41:01;;;;;;;7.07;1.60;;;14.20;93.10;;;;;;5037869;28;20030;-67
2022/05/20 01:43:41;;;;;;;4.65;1.52;;;14.20;93.10;;;;;;5024344;28;20037;-66
2022/05/20 01:46:33;;;;;;;7.90;1.50;;;14.20;93.10;;;;;;5024159;28;20026;-67
2022/05/20 01:49:18;;;;;;;9.23;1.40;;;14.00;93.40;;;;;;5024765;28;20022;-67
2022/05/20 01:52:08;;;;;;;7.32;1.55;;;14.00;93.50;;;;;;5025879;28;20140;-66
2022/05/20 01:55:05;;;;;;;3.13;1.30;;;13.90;93.60;;;;;;5024412;28;20032;-66
2022/05/20 01:57:37;;;;;;;7.32;1.40;;;13.90;94.10;;;;;;5024366;28;20030;-66
2022/05/20 02:00:14;;;;;;;5.75;1.42;;;13.70;94.40;;;;;;5024205;28;20046;-67
2022/05/20 02:02:50;;;;;;;5.80;1.20;;;13.70;94.60;;;;;;5023114;28;20124;-66
2022/05/20 02:05:38;;;;;;;5.95;1.38;;;13.80;94.60;;;;;;5014862;28;20237;-66
2022/05/20 02:08:32;;;;;;;7.47;1.40;;;13.80;94.60;;;;;;5045081;28;20028;-66
2022/05/20 02:11:13;;;;;;;10.38;1.42;;;13.80;94.60;;;;;;5044458;28;20033;-67
2022/05/20 02:13:43;;;;;;;8.32;2.03;;;13.90;94.80;;;;;;5043614;28;20093;-67
2022/05/20 02:16:15;;;;;;;7.35;1.35;;;13.90;94.80;;;;;;5044982;28;20089;-67
2022/05/20 02:18:59;;;;;;;8.45;1.73;;;13.80;95.10;;;;;;5043460;28;20302;-67
2022/05/20 02:21:29;;;;;;;7.43;1.80;;;13.80;95.30;;;;;;5044679;28;20208;-67
2022/05/20 02:24:00;;;;;;;5.97;1.48;;;13.90;95.20;;;;;;5043301;28;20227;-66
2022/05/20 02:26:29;;;;;;;6.93;1.65;;;14.00;95.00;;;;;;5043503;28;20077;-66
2022/05/20 02:28:59;;;;;;;6.22;1.52;;;14.00;95.60;;;;;;5044168;28;20079;-67
2022/05/20 02:31:47;;;;;;;6.18;1.48;;;13.90;96.00;;;;;;5043590;28;20022;-67
2022/05/20 02:34:13;;;;;;;11.07;1.23;;;13.80;96.30;;;;;;5043316;28;20025;-67
2022/05/20 02:36:40;;;;;;;7.55;1.13;;;13.70;96.70;;;;;;5043022;28;20028;-67
2022/05/20 02:39:14;;;;;;;8.13;1.67;;;13.70;97.00;;;;;;5026986;28;20020;-66
2022/05/20 02:41:45;;;;;;;6.82;1.30;;;13.60;97.20;;;;;;5028599;28;20021;-66
2022/05/20 02:44:12;;;;;;;8.30;1.60;;;13.60;97.10;;;;;;5006888;28;20048;-67
2022/05/20 02:46:39;;;;;;;5.05;1.30;;;13.70;97.10;;;;;;5023394;28;20279;-66
2022/05/20 02:49:05;;;;;;;11.02;1.27;;;13.70;97.10;;;;;;5022919;28;20029;-67
2022/05/20 02:51:31;;;;;;;14.43;1.98;;;13.70;96.60;;;;;;5007069;28;20023;-66
2022/05/20 02:53:57;;;;;;;10.88;1.40;;;13.80;96.40;;;;;;5024384;28;20056;-66
2022/05/20 02:56:22;;;;;;;6.03;1.10;;;13.70;96.00;;;;;;5024436;28;20029;-67
2022/05/20 03:04:20;;;;;;;6.40;1.52;;;13.70;95.70;;;;;;5009144;28;20017;-66
2022/05/20 03:06:49;;;;;;;10.07;1.60;;;13.70;95.80;;;;;;5025570;28;20021;-66
2022/05/20 03:09:17;;;;;;;11.13;1.58;;;13.60;96.10;;;;;;5009545;28;20222;-66
2022/05/20 03:11:44;;;;;;;4.93;1.20;;;13.50;96.40;;;;;;5026127;28;20029;-66
2022/05/20 03:14:11;;;;;;;7.97;1.50;;;13.40;96.60;;;;;;5025271;28;20063;-67
2022/05/20 03:16:38;;;;;;;10.50;1.40;;;13.40;96.70;;;;;;5009749;28;20026;-66
2022/05/20 03:19:04;;;;;;;5.97;1.30;;;13.40;96.90;;;;;;5042649;28;20212;-66
2022/05/20 03:21:30;;;;;;;7.45;1.75;;;13.30;97.00;;;;;;5040581;28;20021;-66
2022/05/20 03:23:56;;;;;;;5.03;1.58;;;13.20;97.20;;;;;;5042279;28;20201;-67
2022/05/20 03:26:22;;;;;;;6.47;1.60;;;13.20;97.40;;;;;;5042659;28;20028;-67
2022/05/20 03:28:48;;;;;;;7.82;1.42;;;13.20;97.40;;;;;;5041973;28;20052;-67
2022/05/20 03:31:14;;;;;;;8.85;1.40;;;13.20;97.50;;;;;;5025821;28;20092;-67
2022/05/20 03:33:41;;;;;;;10.07;1.73;;;13.30;97.50;;;;;;5041961;28;20272;-66
2022/05/20 03:36:08;;;;;;;9.50;1.63;;;13.30;97.50;;;;;;5043248;28;20022;-67
2022/05/20 03:38:35;;;;;;;6.18;1.42;;;13.40;97.40;;;;;;5042070;28;20017;-67
2022/05/20 03:41:01;;;;;;;11.32;1.52;;;13.50;97.20;;;;;;5033242;28;20034;-67
2022/05/20 03:43:27;;;;;;;8.05;1.30;;;13.40;97.20;;;;;;5023769;28;20076;-67
2022/05/20 03:45:54;;;;;;;6.80;2.08;;;13.40;97.40;;;;;;5022095;28;20148;-66
2022/05/20 03:48:20;;;;;;;10.02;1.45;;;13.40;97.60;;;;;;5022445;28;20033;-66
2022/05/20 03:50:46;;;;;;;6.47;1.40;;;13.30;97.80;;;;;;5022412;28;20033;-66
2022/05/20 03:53:12;;;;;;;6.45;1.40;;;13.30;97.90;;;;;;5023501;28;20026;-66
2022/05/20 03:55:38;;;;;;;8.30;1.63;;;13.30;97.90;;;;;;5022552;28;20029;-67
2022/05/20 03:58:04;;;;;;;7.93;1.40;;;13.30;97.80;;;;;;5006030;28;20025;-66
2022/05/20 04:00:29;;;;;;;9.23;2.20;;;13.40;97.80;;;;;;5022167;28;20095;-67
2022/05/20 04:02:56;;;;;;;4.97;1.52;;;13.50;97.70;;;;;;5021951;28;20045;-66
2022/05/20 04:05:23;;;;;;;7.72;1.73;;;13.60;97.50;;;;;;5029354;28;20048;-67
2022/05/20 04:07:49;;;;;;;7.63;1.58;;;13.60;97.10;;;;;;5042080;28;20022;-67
2022/05/20 04:10:14;;;;;;;9.60;1.30;;;13.60;97.40;;;;;;5043333;28;20391;-66
2022/05/20 04:12:42;;;;;;;9.45;1.63;;;13.60;97.80;;;;;;5041751;28;20027;-67
2022/05/20 04:15:13;;;;;;;8.43;1.90;;;13.50;97.80;;;;;;5042027;28;20017;-66
2022/05/20 04:17:39;;;;;;;9.70;2.08;;;13.50;97.80;;;;;;5041889;28;20018;-67
2022/05/20 04:20:06;;;;;;;6.13;1.55;;;13.40;98.00;;;;;;5025136;28;20029;-66
2022/05/20 04:22:35;;;;;;;8.00;1.80;;;13.40;98.20;;;;;;5041125;28;20026;-66
2022/05/20 04:25:00;;;;;;;10.85;1.95;;;13.30;98.40;;;;;;5044131;28;20072;-67
2022/05/20 04:27:28;;;;;;;8.38;1.52;;;13.40;98.50;;;;;;5045596;28;20021;-66
2022/05/20 04:29:55;;;;;;;6.78;1.42;;;13.40;98.50;;;;;;5046931;28;20014;-67
2022/05/20 04:32:20;;;;;;;7.80;1.77;;;13.30;98.60;;;;;;5029476;28;20029;-67
2022/05/20 04:34:46;;;;;;;7.80;1.70;;;13.20;98.70;;;;;;5012115;28;20216;-67
2022/05/20 04:37:13;;;;;;;5.55;1.30;;;13.20;98.90;;;;;;5046805;28;20025;-66
2022/05/20 04:39:39;;;;;;;7.88;1.50;;;13.30;98.80;;;;;;5028987;28;20021;-67
2022/05/20 04:47:37;;;;;;;11.07;1.77;;;13.40;98.90;;;;;;5025721;28;20025;-66
2022/05/20 04:50:05;;;;;;;6.47;1.30;;;13.50;98.90;;;;;;4992581;28;20045;-66
2022/05/20 04:52:31;;;;;;;7.45;1.63;;;13.40;98.90;;;;;;5025645;28;20049;-66
2022/05/20 04:54:56;;;;;;;8.63;1.83;;;13.30;99.20;;;;;;5026144;28;20305;-67
2022/05/20 04:57:35;;;;;;;8.70;2.08;;;13.30;99.30;;;;;;5026054;28;20103;-66
2022/05/20 05:00:22;;;;;;;13.60;2.13;;;13.30;99.40;;;;;;5025859;28;20281;-66
2022/05/20 05:02:49;;;;;;;11.82;1.98;;;13.30;99.40;;;;;;5024156;28;20029;-67
2022/05/20 05:05:18;;;;;;;10.15;1.98;;;13.40;99.40;;;;;;5031154;28;20335;-67
2022/05/20 05:07:47;;;;;;;10.73;1.50;;;13.40;99.20;;;;;;5045138;28;20079;-66
2022/05/20 05:10:16;;;;;;;7.55;1.52;;;13.40;99.00;;;;;;5011569;28;20088;-66
2022/05/20 05:12:42;;;;;;;11.77;2.33;;;13.30;99.20;;;;;;5044521;28;20025;-66
2022/05/20 05:15:10;;;;;;;12.68;2.13;;;13.40;99.40;;;;;;5044810;28;20355;-67
2022/05/20 05:20:24;;;;;;;12.43;2.42;;;13.40;99.40;;;;;;5031184;28;20022;-67
2022/05/20 05:22:51;;;;;;;8.70;2.33;;;13.40;99.80;;;;;;5026204;28;20033;-67
2022/05/20 05:25:18;;;;;;;14.68;2.30;;;13.50;99.60;;;;;;5045921;28;20018;-66
2022/05/20 05:27:44;;;;;;;12.73;1.98;;;13.50;99.60;;;;;;5044899;28;20040;-67
2022/05/20 05:30:11;;;;;;;11.02;2.30;;;13.50;99.80;;;;;;5044699;28;20088;-67
2022/05/20 05:32:38;;;;;;;7.55;1.77;;;13.50;99.80;;;;;;5028119;28;20021;-67
2022/05/20 05:35:07;;;;;;;16.30;2.00;;;13.70;99.70;;;;;;5045103;28;20028;-67
2022/05/20 05:37:34;;;;;;;7.35;2.22;;;13.70;99.70;;;;;;5026616;28;20025;-66
2022/05/20 05:40:00;;;;;;;10.07;1.73;;;13.80;99.30;;;;;;5044115;28;20025;-66
2022/05/20 05:42:25;;;;;;;8.15;1.90;;;13.80;99.50;;;;;;5024538;28;20053;-67
2022/05/20 05:44:53;;;;;;;14.40;2.25;;;13.90;99.40;;;;;;5008363;28;20085;-67
2022/05/20 05:47:18;;;;;;;13.15;1.90;;;14.10;98.70;;;;;;5024747;28;20032;-67
2022/05/20 05:49:44;;;;;;;8.90;1.50;;;14.10;98.70;;;;;;5008011;28;20372;-67
2022/05/20 05:52:10;;;;;;;9.52;1.60;;;14.20;98.50;;;;;;5025031;28;20040;-67
2022/05/20 05:54:36;;;;;;;17.73;2.05;;;14.30;98.10;;;;;;5025368;28;20056;-67
2022/05/20 05:57:03;;;;;;;10.50;1.88;;;14.30;98.10;;;;;;5024136;28;20217;-67
2022/05/20 05:59:31;;;;;;;28.25;2.70;;;14.30;98.10;;;;;;5025265;28;20042;-67
2022/05/20 06:01:59;;;;;;;9.80;1.92;;;14.30;98.10;;;;;;5008185;28;20038;-68
2022/05/20 06:04:25;;;;;;;6.43;1.80;;;14.30;98.20;;;;;;5024960;28;20312;-67
2022/05/20 06:06:50;;;;;;;17.10;2.20;;;14.20;98.10;;;;;;5045017;28;20044;-67
2022/05/20 06:09:16;;;;;;;11.77;1.67;;;14.20;98.50;;;;;;5045009;28;20022;-68
2022/05/20 06:11:42;;;;;;;11.10;1.80;;;14.20;98.30;;;;;;5043829;28;20029;-67
2022/05/20 06:14:07;;;;;;;13.48;1.65;;;14.20;98.60;;;;;;5026961;28;20033;-68
2022/05/20 06:16:34;;;;;;;12.45;1.73;;;14.20;98.60;;;;;;5045197;28;20036;-67
2022/05/20 06:19:00;;;;;;;13.18;1.73;;;14.30;98.50;;;;;;5043898;28;20067;-67
2022/05/20 06:21:26;;;;;;;8.68;1.60;;;14.30;98.50;;;;;;5043017;28;20327;-68
2022/05/20 06:23:52;;;;;;;14.07;1.98;;;14.40;98.60;;;;;;5024930;28;20108;-67
2022/05/20 06:26:18;;;;;;;16.17;2.78;;;14.50;98.80;;;;;;5043243;28;20053;-67
2022/05/20 06:28:45;;;;;;;6.47;1.33;;;14.40;98.60;;;;;;5026691;28;20017;-67
2022/05/20 06:31:11;;;;;;;9.23;1.40;;;14.30;98.80;;;;;;5044080;28;20045;-67
2022/05/20 06:33:37;;;;;;;12.18;2.00;;;14.40;99.30;;;;;;5043609;28;20028;-67
2022/05/20 06:41:35;;;;;;;7.95;1.80;;;14.30;99.90;;;;;;5015600;28;20022;-68
2022/05/20 06:44:02;;;;;;;9.40;1.58;;;14.30;99.90;;;;;;5007204;28;20208;-68
2022/05/20 06:46:28;;;;;;;19.90;2.03;;;14.30;99.90;;;;;;5007238;28;20248;-68
2022/05/20 06:48:55;;;;;;;15.30;1.95;;;14.40;99.90;;;;;;5024514;28;20021;-68
2022/05/20 06:51:25;;;;;;;9.77;1.52;;;14.40;99.90;;;;;;5006898;28;20097;-67
2022/05/20 06:53:53;;;;;;;7.65;1.75;;;14.40;99.90;;;;;;5023348;28;20115;-68
2022/05/20 06:56:21;;;;;;;7.65;1.52;;;14.40;99.90;;;;;;5006353;28;20049;-67
2022/05/20 06:58:47;;;;;;;12.43;1.95;;;14.40;99.90;;;;;;5007171;28;20021;-67
2022/05/20 07:01:14;;;;;;;9.27;2.03;;;14.40;99.90;;;;;;5006371;28;20057;-69
2022/05/20 07:03:41;;;;;;;9.73;1.90;;;14.40;99.90;;;;;;5022594;28;20168;-67
2022/05/20 07:06:08;;;;;;;11.00;2.10;;;14.30;99.90;;;;;;5036506;28;20032;-66
2022/05/20 07:08:35;;;;;;;8.63;1.45;;;14.30;99.90;;;;;;5015233;28;20526;-67
2022/05/20 07:11:02;;;;;;;4.72;1.42;;;14.30;99.90;;;;;;5021249;28;20071;-66
2022/05/20 07:13:29;;;;;;;8.02;1.70;;;14.40;99.90;;;;;;5022209;28;20044;-66
2022/05/20 07:15:57;;;;;;;10.27;1.90;;;14.50;99.90;;;;;;5005508;28;20029;-65
2022/05/20 07:18:24;;;;;;;9.10;1.70;;;14.60;99.90;;;;;;5023317;28;20110;-69
2022/05/20 07:20:50;;;;;;;7.45;1.48;;;14.60;99.90;;;;;;5022996;28;20359;-67
2022/05/20 07:23:15;;;;;;;8.02;1.40;;;14.60;99.90;;;;;;5019962;28;20037;-67
2022/05/20 07:25:41;;;;;;;9.52;1.60;;;14.60;99.90;;;;;;5002931;28;20194;-67
2022/05/20 07:28:07;;;;;;;9.50;1.83;;;14.70;99.90;;;;;;5023210;28;20321;-67
2022/05/20 07:30:33;;;;;;;9.20;1.42;;;14.80;99.90;;;;;;5021723;28;20224;-67
2022/05/20 07:32:59;;;;;;;7.35;1.67;;;14.90;99.90;;;;;;5021128;28;20037;-66
2022/05/20 07:35:25;;;;;;;8.65;1.80;;;15.10;99.90;;;;;;5006095;28;20030;-68
2022/05/20 07:37:51;;;;;;;11.23;2.08;;;15.10;99.90;;;;;;5023341;28;20209;-68
2022/05/20 07:40:17;;;;;;;6.53;1.42;;;15.30;99.90;;;;;;5022144;28;20036;-68
2022/05/20 07:42:43;;;;;;;11.90;2.00;;;15.40;99.00;;;;;;5021137;28;20051;-67
2022/05/20 07:45:09;;;;;;;6.05;1.20;;;15.40;98.50;;;;;;5002154;28;20319;-67
2022/05/20 07:47:35;;;;;;;6.85;1.20;;;15.30;97.20;;;;;;5018400;28;20081;-68
2022/05/20 07:50:03;;;;;;;7.20;1.40;;;15.20;97.40;;;;;;5023369;28;20321;-68
2022/05/20 07:55:18;;;;;;;4.07;1.27;;;15.10;98.10;;;;;;5022351;28;20056;-65
2022/05/20 07:57:44;;;;;;;10.77;1.90;;;15.20;98.40;;;;;;5022849;28;20351;-66
2022/05/20 08:00:12;;;;;;;8.18;1.75;;;15.20;98.50;;;;;;5021128;28;20121;-65
2022/05/20 08:02:41;;;;;;;9.88;1.70;;;15.10;97.80;;;;;;5020213;28;20072;-67
2022/05/20 08:05:07;;;;;;;7.00;1.42;;;15.00;98.60;;;;;;5015007;28;20018;-68
2022/05/20 08:07:38;;;;;;;4.72;1.20;;;14.90;99.00;;;;;;5008166;28;20079;-66
2022/05/20 08:10:13;;;;;;;7.90;1.40;;;14.80;98.70;;;;;;5018437;28;20212;-67
2022/05/20 08:12:38;;;;;;;6.07;1.35;;;14.70;98.80;;;;;;4995843;28;20030;-68
2022/05/20 08:15:05;;;;;;;8.15;1.52;;;14.70;99.00;;;;;;5004145;28;20026;-67
2022/05/20 08:17:36;;;;;;;5.82;1.40;;;14.70;99.30;;;;;;5021422;28;20277;-67
2022/05/20 08:20:04;;;;;;;11.05;1.40;;;14.80;99.80;;;;;;5021012;28;20025;-66
2022/05/20 08:22:30;;;;;;;10.07;1.45;;;14.90;99.10;;;;;;5022354;28;20033;-66
2022/05/20 08:24:58;;;;;;;7.82;1.90;;;14.80;99.90;;;;;;5018858;28;20273;-67
2022/05/20 08:27:26;;;;;;;13.20;2.10;;;14.80;99.90;;;;;;5021016;28;20028;-66
2022/05/20 08:29:52;;;;;;;7.90;1.30;;;14.80;99.70;;;;;;5005082;28;20096;-66
2022/05/20 08:32:19;;;;;;;4.28;1.08;;;14.80;99.90;;;;;;5020904;28;20037;-66
2022/05/20 08:34:46;;;;;;;7.90;1.92;;;14.90;99.90;;;;;;5021433;28;20060;-65
2022/05/20 08:37:13;;;;;;;8.35;2.03;;;14.90;99.90;;;;;;5022542;28;20041;-65
2022/05/20 08:39:39;;;;;;;6.88;1.65;;;14.90;99.90;;;;;;5020994;28;20029;-67
2022/05/20 08:42:11;;;;;;;7.50;1.50;;;14.90;99.90;;;;;;5021364;28;20038;-66
2022/05/20 08:44:37;;;;;;;9.43;1.75;;;14.90;99.90;;;;;;5001068;28;20046;-67
2022/05/20 08:47:42;;;;;;;7.15;2.15;;;15.10;99.90;;;;;;4996635;28;20117;-67
2022/05/20 08:50:13;;;;;;;5.00;1.17;;;15.20;99.90;;;;;;5021516;28;20053;-65
2022/05/20 08:52:40;;;;;;;4.25;1.20;;;15.30;99.90;;;;;;5021925;28;20049;-66
2022/05/20 08:55:06;;;;;;;8.73;1.77;;;15.30;99.90;;;;;;5020435;28;20201;-67
2022/05/20 08:57:33;;;;;;;7.85;1.50;;;15.40;99.90;;;;;;5022219;28;20056;-67
2022/05/20 09:00:01;;;;;;;5.60;1.65;;;15.60;99.90;;;;;;5022392;28;20060;-67
2022/05/20 09:02:26;;;;;;;5.93;1.40;;;15.70;99.50;;;;;;5021982;28;20051;-66
2022/05/20 09:04:52;;;;;;;7.40;1.85;;;15.70;98.80;;;;;;5018915;28;20265;-66
2022/05/20 09:07:20;;;;;;;7.88;1.80;;;15.70;99.20;;;;;;5024494;28;20060;-69
2022/05/20 09:09:50;;;;;;;7.15;1.23;;;15.80;99.20;;;;;;5025087;28;20021;-67
2022/05/20 09:12:36;;;;;;;8.45;1.25;;;15.80;98.70;;;;;;5042128;28;20193;-66
2022/05/20 09:18:06;;;;;;;3.88;1.23;;;15.70;98.50;;;;;;4998484;28;20049;-67
2022/05/20 09:20:33;;;;;;;3.65;0.90;;;15.60;97.80;;;;;;5004868;28;20030;-66
2022/05/20 09:23:04;;;;;;;5.43;1.38;;;15.30;98.00;;;;;;5000090;28;20333;-66
2022/05/20 09:25:33;;;;;;;3.22;0.90;;;15.30;98.60;;;;;;5024155;28;20033;-66
2022/05/20 09:28:38;;;;;;;4.88;0.82;;;15.30;98.80;;;;;;5008425;28;20033;-68
2022/05/20 09:31:30;;;;;;;5.00;1.17;;;15.30;98.70;;;;;;5014257;28;20033;-66
2022/05/20 09:34:33;;;;;;;2.92;0.98;;;15.30;98.80;;;;;;5007484;28;20313;-66
2022/05/20 09:37:02;;;;;;;5.40;1.10;;;15.30;98.70;;;;;;4997716;28;20097;-68
2022/05/20 09:39:34;;;;;;;5.55;1.15;;;15.30;98.80;;;;;;5024401;28;20193;-68
2022/05/20 09:42:04;;;;;;;6.85;1.23;;;15.20;98.50;;;;;;5024203;28;20089;-66
2022/05/20 09:44:41;;;;;;;7.55;1.13;;;15.30;98.50;;;;;;5024205;28;20029;-65
2022/05/20 09:47:32;;;;;;;3.63;1.20;;;15.30;98.10;;;;;;5007729;28;20029;-66
2022/05/20 09:50:19;;;;;;;4.20;1.05;;;15.40;98.50;;;;;;5004512;28;20217;-66
2022/05/20 09:52:52;;;;;;;3.15;0.90;;;15.40;97.90;;;;;;5023305;28;20037;-67
2022/05/20 09:55:39;;;;;;;3.90;1.20;;;15.60;98.10;;;;;;5017291;28;20038;-66
2022/05/20 09:58:28;;;;;;;4.80;1.20;;;15.70;97.90;;;;;;5024227;28;20240;-65
2022/05/20 10:01:02;;;;;;;5.00;1.20;;;15.80;97.90;;;;;;5023355;28;20053;-66
2022/05/20 10:03:33;;;;;;;6.93;1.45;;;16.00;98.00;;;;;;5024282;28;20042;-64
2022/05/20 10:06:33;;;;;;;7.72;1.00;;;16.30;97.80;;;;;;5033906;28;20125;-65
2022/05/20 10:09:39;;;;;;;5.57;1.10;;;16.50;97.00;;;;;;5023836;28;20026;-65
2022/05/20 10:12:11;;;;;;;9.15;1.00;;;16.40;95.90;;;;;;5010002;28;20100;-65
2022/05/20 10:15:17;;;;;;;3.17;1.00;;;16.20;95.60;;;;;;5024676;28;20080;-66
2022/05/20 10:18:01;;;;;;;7.70;1.10;;;16.00;96.00;;;;;;5012967;28;20022;-65
2022/05/20 10:20:53;;;;;;;7.43;1.40;;;15.90;97.10;;;;;;5023674;28;20037;-67
2022/05/20 10:23:43;;;;;;;10.80;1.30;;;15.90;97.60;;;;;;5009740;28;20272;-64
2022/05/20 10:26:21;;;;;;;5.65;1.08;;;16.10;97.30;;;;;;5019806;28;20077;-66
2022/05/20 10:34:43;;;;;;;9.95;1.50;;;16.50;97.40;;;;;;5009302;28;20034;-67
2022/05/20 10:37:23;;;;;;;21.70;1.85;;;16.60;96.20;;;;;;5024147;28;20304;-67
2022/05/20 10:40:29;;;;;;;8.95;1.40;;;16.60;96.50;;;;;;5023651;28;20025;-67
2022/05/20 10:48:34;;;;;;;4.82;1.10;;;16.60;96.00;;;;;;4998130;28;20200;-65
2022/05/20 10:49:48;;;;;;;50.95;5.53;;;17.10;95.40;;;;;;5009212;28;20022;-67
2022/05/20 10:52:27;;;;;;;7.57;1.45;;;17.20;94.30;;;;;;5022510;28;20029;-64
2022/05/20 10:55:22;;;;;;;6.55;1.00;;;17.20;94.80;;;;;;5022509;28;20053;-66
2022/05/20 10:58:28;;;;;;;10.88;1.40;;;17.30;95.30;;;;;;5023155;28;20026;-67
2022/05/20 11:00:55;;;;;;;14.07;1.27;;;17.40;95.10;;;;;;5022581;28;20231;-66
2022/05/20 11:03:51;;;;;;;14.40;2.58;;;17.70;93.80;;;;;;5021732;28;20041;-64
2022/05/20 11:06:57;;;;;;;4.93;0.90;;;17.70;93.30;;;;;;5022481;28;20093;-68
2022/05/20 11:09:49;;;;;;;7.15;1.23;;;17.60;93.40;;;;;;5005320;28;20122;-67
2022/05/20 11:12:49;;;;;;;8.27;1.27;;;17.60;94.00;;;;;;5016542;28;20022;-67
2022/05/20 11:15:47;;;;;;;4.75;0.90;;;17.60;94.30;;;;;;5005698;28;20359;-66
2022/05/20 11:18:26;;;;;;;5.13;0.88;;;17.40;93.50;;;;;;5023716;28;20093;-67
2022/05/20 11:21:19;;;;;;;7.88;1.45;;;17.30;94.70;;;;;;5023715;28;20021;-66
2022/05/20 11:24:15;;;;;;;6.03;1.00;;;17.20;94.40;;;;;;5008125;28;20100;-66
2022/05/20 11:27:15;;;;;;;5.72;0.80;;;17.10;94.70;;;;;;5020524;28;20026;-67
2022/05/20 11:30:17;;;;;;;7.20;0.80;;;17.00;94.90;;;;;;5008351;28;20216;-67
2022/05/20 11:33:22;;;;;;;4.50;1.13;;;17.20;94.70;;;;;;5002735;28;20077;-66
2022/05/20 11:36:25;;;;;;;4.25;0.80;;;17.20;94.20;;;;;;5019033;28;20053;-66
2022/05/20 11:39:22;;;;;;;4.10;0.68;;;17.20;94.20;;;;;;5022693;28;20268;-65
2022/05/20 11:42:11;;;;;;;6.70;1.30;;;17.20;94.10;;;;;;5002442;28;20022;-65
2022/05/20 11:45:11;;;;;;;4.45;1.02;;;17.40;94.10;;;;;;5021482;28;20049;-67
2022/05/20 11:48:06;;;;;;;5.95;1.35;;;17.40;93.80;;;;;;5022006;28;20060;-66
2022/05/20 11:50:58;;;;;;;7.45;1.05;;;17.50;93.80;;;;;;5007726;28;20021;-65
2022/05/20 11:53:48;;;;;;;3.83;1.02;;;17.50;93.30;;;;;;5022323;28;20076;-66
2022/05/20 11:56:23;;;;;;;3.58;0.80;;;17.70;93.40;;;;;;5022188;28;20041;-66
2022/05/20 11:58:58;;;;;;;5.45;1.25;;;17.70;92.60;;;;;;5021171;28;20289;-66
2022/05/20 12:01:26;;;;;;;6.22;1.60;;;17.90;92.20;;;;;;5018688;28;20240;-67
2022/05/20 12:04:07;;;;;;;5.18;1.00;;;18.10;92.20;;;;;;5020778;28;20090;-66
2022/05/20 12:06:44;;;;;;;4.45;1.15;;;18.30;92.90;;;;;;5026879;28;20021;-67
2022/05/20 12:09:32;;;;;;;5.22;1.30;;;18.60;91.60;;;;;;5022401;28;20021;-68
2022/05/20 12:12:24;;;;;;;5.95;1.13;;;18.70;91.20;;;;;;5021192;28;20022;-67
2022/05/20 12:15:21;;;;;;;4.25;1.30;;;18.70;91.40;;;;;;4986985;28;20069;-66
2022/05/20 12:17:49;;;;;;;3.63;1.40;;;18.70;91.30;;;;;;5001930;28;20229;-70
2022/05/20 12:26:48;;;;;;;4.82;1.08;;;19.10;90.80;;;;;;5014834;28;20017;-68
2022/05/20 12:29:45;;;;;;;4.45;0.73;;;19.00;90.30;;;;;;5005588;28;20037;-67
2022/05/20 12:32:42;;;;;;;3.83;0.95;;;18.80;89.30;;;;;;5010024;28;20084;-68
2022/05/20 12:35:35;;;;;;;4.90;1.08;;;18.80;90.10;;;;;;5001502;28;20094;-67
2022/05/20 12:38:21;;;;;;;5.72;1.00;;;19.00;89.80;;;;;;5001861;28;20097;-68
2022/05/20 12:40:51;;;;;;;6.70;1.10;;;19.30;89.30;;;;;;5009930;28;20018;-67
2022/05/20 12:43:16;;;;;;;5.93;0.90;;;19.30;89.20;;;;;;5021184;28;20317;-67
2022/05/20 12:45:55;;;;;;;8.75;1.38;;;19.20;87.90;;;;;;5021091;28;20022;-67
2022/05/20 12:48:25;;;;;;;4.45;1.00;;;19.30;88.70;;;;;;5023025;28;20045;-68
2022/05/20 12:51:01;;;;;;;4.25;1.00;;;19.50;88.20;;;;;;5024570;28;20030;-68
2022/05/20 12:53:30;;;;;;;9.63;1.60;;;19.60;88.40;;;;;;5024899;28;20125;-68
2022/05/20 12:55:59;;;;;;;6.35;1.38;;;19.70;88.30;;;;;;5026138;28;20201;-67
2022/05/20 12:58:30;;;;;;;6.38;1.00;;;19.50;87.50;;;;;;5023775;28;20045;-69
2022/05/20 13:01:00;;;;;;;4.30;0.82;;;19.20;89.30;;;;;;5025547;28;20049;-69
2022/05/20 13:03:45;;;;;;;8.25;1.13;;;18.80;88.10;;;;;;5024239;28;20025;-67
2022/05/20 13:06:34;;;;;;;3.30;0.98;;;18.70;89.80;;;;;;5010103;28;20033;-67
2022/05/20 13:09:04;;;;;;;6.55;1.30;;;18.80;89.70;;;;;;5004567;28;20302;-69
2022/05/20 13:11:42;;;;;;;9.82;1.45;;;18.90;89.50;;;;;;5003878;28;20040;-69
2022/05/20 13:14:12;;;;;;;7.82;1.80;;;18.90;89.80;;;;;;5024371;28;20073;-68
2022/05/20 13:16:40;;;;;;;5.50;1.20;;;18.80;89.30;;;;;;5025444;28;20044;-67
2022/05/20 13:19:12;;;;;;;7.85;1.00;;;18.80;89.10;;;;;;5023589;28;20060;-69
2022/05/20 13:21:43;;;;;;;4.70;1.00;;;18.80;89.10;;;;;;4988974;28;20022;-70
2022/05/20 13:24:15;;;;;;;7.30;1.20;;;18.80;89.90;;;;;;4988544;28;20081;-70
2022/05/20 13:26:42;;;;;;;10.25;1.40;;;19.00;88.80;;;;;;5021484;28;20046;-69
2022/05/20 13:29:20;;;;;;;9.63;1.55;;;19.30;88.30;;;;;;5022198;28;20018;-67
2022/05/20 13:31:46;;;;;;;3.17;0.90;;;19.60;89.30;;;;;;5024447;28;20025;-70
2022/05/20 13:34:13;;;;;;;8.02;1.25;;;19.70;89.50;;;;;;5023984;28;20036;-67
2022/05/20 13:36:51;;;;;;;7.80;1.20;;;19.80;88.60;;;;;;5024447;28;20110;-69
2022/05/20 13:39:21;;;;;;;8.82;1.48;;;19.70;88.40;;;;;;5012857;28;20034;-68
2022/05/20 13:41:49;;;;;;;23.65;2.83;;;19.50;88.40;;;;;;5024132;28;20037;-67
2022/05/20 13:44:15;;;;;;;9.63;1.38;;;19.60;88.80;;;;;;5024893;28;20022;-70
2022/05/20 13:49:35;;;;;;;6.10;1.05;;;19.50;89.00;;;;;;5010334;28;20034;-69
2022/05/20 13:52:04;;;;;;;5.80;1.08;;;19.60;89.40;;;;;;5024255;28;20017;-69
2022/05/20 13:54:35;;;;;;;6.75;1.17;;;19.60;89.30;;;;;;5007291;28;20026;-69
2022/05/20 13:57:03;;;;;;;3.95;1.02;;;19.60;89.50;;;;;;4997314;28;20034;-69
2022/05/20 13:59:36;;;;;;;5.38;1.25;;;19.70;90.00;;;;;;5008501;28;20367;-69